createdAt,value
2018-02-15T00:00:36.207Z,12.90
2018-02-15T00:03:03.652Z,11.50
2018-02-15T00:05:31.101Z,12.53
2018-02-15T00:07:59.316Z,13.10
2018-02-15T00:10:27.535Z,12.23
2018-02-15T00:12:54.997Z,13.07
2018-02-15T00:15:22.437Z,12.73
2018-02-15T00:17:49.887Z,12.23
2018-02-15T00:20:17.344Z,13.23
2018-02-15T00:22:44.805Z,14.47
2018-02-15T00:25:12.256Z,13.20
2018-02-15T00:27:39.720Z,12.37
2018-02-15T00:30:07.219Z,13.17
2018-02-15T00:32:34.672Z,10.93
2018-02-15T00:35:02.147Z,12.53
2018-02-15T00:37:29.584Z,11.57
2018-02-15T00:39:57.076Z,10.63
2018-02-15T00:42:24.550Z,13.77
2018-02-15T00:44:51.985Z,13.17
2018-02-15T00:47:19.422Z,13.00
2018-02-15T00:49:46.881Z,11.43
2018-02-15T00:52:14.334Z,14.90
2018-02-15T00:54:41.799Z,12.37
2018-02-15T00:57:09.258Z,13.67
2018-02-15T00:59:36.751Z,12.80
2018-02-15T01:02:04.204Z,12.80
2018-02-15T01:04:31.676Z,12.17
2018-02-15T01:06:59.124Z,13.03
2018-02-15T01:09:26.616Z,12.43
2018-02-15T01:11:54.094Z,11.60
2018-02-15T01:14:21.537Z,11.77
2018-02-15T01:16:48.982Z,10.93
2018-02-15T01:19:16.453Z,14.47
2018-02-15T01:21:43.905Z,15.03
2018-02-15T01:24:11.341Z,13.60
2018-02-15T01:26:39.588Z,11.33
2018-02-15T01:29:07.030Z,11.10
2018-02-15T01:31:34.475Z,12.70
2018-02-15T01:34:01.916Z,11.03
2018-02-15T01:36:29.361Z,14.50
2018-02-15T01:38:56.797Z,11.20
2018-02-15T01:41:24.242Z,12.37
2018-02-15T01:43:51.758Z,13.53
2018-02-15T01:46:19.189Z,12.03
2018-02-15T01:48:46.642Z,11.77
2018-02-15T01:51:14.080Z,14.43
2018-02-15T01:53:41.538Z,13.87
2018-02-15T01:56:08.975Z,11.30
2018-02-15T01:58:37.180Z,12.00
2018-02-15T02:01:05.043Z,11.57
2018-02-15T02:03:32.489Z,14.00
2018-02-15T02:05:59.935Z,10.30
2018-02-15T02:08:28.149Z,12.00
2018-02-15T02:10:55.603Z,12.73
2018-02-15T02:13:23.063Z,14.17
2018-02-15T02:15:50.518Z,11.50
2018-02-15T02:18:17.980Z,13.33
2018-02-15T02:20:46.205Z,14.60
2018-02-15T02:23:13.664Z,12.13
2018-02-15T02:25:41.133Z,11.50
2018-02-15T02:28:08.582Z,11.37
2018-02-15T02:30:36.022Z,10.87
2018-02-15T02:33:03.481Z,10.20
2018-02-15T02:35:30.934Z,11.50
2018-02-15T02:37:59.152Z,11.57
2018-02-15T02:40:26.619Z,11.60
2018-02-15T02:42:54.058Z,11.00
2018-02-15T02:45:21.523Z,11.33
2018-02-15T02:47:48.979Z,10.67
2018-02-15T02:50:16.868Z,12.30
2018-02-15T02:52:44.323Z,11.53
2018-02-15T02:55:11.768Z,12.33
2018-02-15T02:57:39.985Z,13.80
2018-02-15T03:00:25.304Z,11.67
2018-02-15T03:02:53.568Z,9.90
2018-02-15T03:05:21.059Z,13.40
2018-02-15T03:07:49.313Z,10.80
2018-02-15T03:10:16.824Z,10.77
2018-02-15T03:12:44.305Z,11.37
2018-02-15T03:15:11.831Z,11.03
2018-02-15T03:17:40.074Z,11.03
2018-02-15T03:20:07.573Z,13.13
2018-02-15T03:22:35.951Z,12.50
2018-02-15T03:25:04.171Z,12.10
2018-02-15T03:27:31.622Z,13.63
2018-02-15T03:29:59.068Z,12.00
2018-02-15T03:32:26.519Z,11.93
2018-02-15T03:34:54.725Z,9.60
2018-02-15T03:37:22.212Z,13.30
2018-02-15T03:39:49.660Z,9.83
2018-02-15T03:42:17.096Z,9.30
2018-02-15T03:44:45.317Z,10.40
2018-02-15T03:47:12.808Z,11.47
2018-02-15T03:49:40.257Z,12.63
2018-02-15T03:52:08.476Z,10.73
2018-02-15T03:54:36.714Z,11.07
2018-02-15T03:57:04.174Z,12.23
2018-02-15T03:59:31.612Z,10.53
2018-02-15T04:01:59.087Z,12.20
2018-02-15T04:04:26.552Z,11.63
2018-02-15T04:06:54.019Z,13.63
2018-02-15T04:09:21.497Z,12.23
2018-02-15T04:11:48.966Z,12.83
2018-02-15T04:14:16.433Z,11.80
2018-02-15T04:16:43.900Z,12.63
2018-02-15T04:19:11.364Z,12.53
2018-02-15T04:21:38.831Z,11.87
2018-02-15T04:24:06.285Z,10.53
2018-02-15T04:26:33.763Z,11.50
2018-02-15T04:29:01.992Z,10.93
2018-02-15T04:31:29.477Z,13.07
2018-02-15T04:33:56.954Z,12.63
2018-02-15T04:36:24.426Z,13.43
2018-02-15T04:38:51.880Z,11.90
2018-02-15T04:41:19.322Z,12.13
2018-02-15T04:43:46.789Z,13.00
2018-02-15T04:46:14.242Z,12.13
2018-02-15T04:48:41.712Z,12.00
2018-02-15T04:51:09.144Z,13.13
2018-02-15T04:53:36.620Z,12.80
2018-02-15T04:56:04.076Z,12.40
2018-02-15T04:58:31.540Z,12.93
2018-02-15T05:00:59.002Z,15.50
2018-02-15T05:03:26.469Z,12.67
2018-02-15T05:05:53.934Z,13.23
2018-02-15T05:08:21.391Z,12.40
2018-02-15T05:10:48.891Z,13.60
2018-02-15T05:13:16.372Z,13.23
2018-02-15T05:15:44.601Z,14.30
2018-02-15T05:18:12.059Z,13.93
2018-02-15T05:20:39.577Z,14.60
2018-02-15T05:23:07.805Z,15.90
2018-02-15T05:25:35.279Z,15.13
2018-02-15T05:28:02.725Z,12.53
2018-02-15T05:30:30.188Z,13.17
2018-02-15T05:32:57.643Z,14.37
2018-02-15T05:35:25.089Z,14.77
2018-02-15T05:37:52.533Z,12.77
2018-02-15T05:40:20.758Z,12.60
2018-02-15T05:42:48.208Z,14.33
2018-02-15T05:45:15.658Z,14.87
2018-02-15T05:47:43.101Z,15.37
2018-02-15T05:50:11.323Z,12.00
2018-02-15T05:52:38.770Z,13.90
2018-02-15T05:55:06.233Z,13.17
2018-02-15T05:57:33.667Z,14.10
2018-02-15T06:00:01.894Z,13.63
2018-02-15T06:02:29.365Z,15.57
2018-02-15T06:04:56.844Z,13.83
2018-02-15T06:07:24.334Z,16.07
2018-02-15T06:09:54.660Z,15.10
2018-02-15T06:12:22.977Z,16.40
2018-02-15T06:14:50.487Z,14.03
2018-02-15T06:17:17.984Z,13.50
2018-02-15T06:19:46.284Z,12.93
2018-02-15T06:22:15.686Z,14.50
2018-02-15T06:24:43.995Z,14.73
2018-02-15T06:27:11.570Z,14.87
2018-02-15T06:29:39.099Z,13.70
2018-02-15T06:32:07.407Z,14.63
2018-02-15T06:34:34.933Z,14.43
2018-02-15T06:37:03.267Z,15.37
2018-02-15T06:39:30.921Z,14.97
2018-02-15T06:41:58.422Z,15.83
2018-02-15T06:44:26.744Z,14.27
2018-02-15T06:46:54.275Z,14.10
2018-02-15T06:49:21.804Z,13.80
2018-02-15T06:51:49.349Z,14.07
2018-02-15T06:54:16.887Z,15.30
2018-02-15T06:56:45.187Z,12.90
2018-02-15T06:59:12.711Z,14.00
2018-02-15T07:01:41.022Z,12.90
2018-02-15T07:04:09.319Z,13.33
2018-02-15T07:06:36.837Z,13.03
2018-02-15T07:09:04.359Z,14.10
2018-02-15T07:11:31.876Z,14.30
2018-02-15T07:14:00.257Z,13.33
2018-02-15T07:16:27.780Z,13.27
2018-02-15T07:18:55.310Z,14.53
2018-02-15T07:21:23.610Z,14.23
2018-02-15T07:23:51.137Z,12.33
2018-02-15T07:26:18.644Z,11.97
2018-02-15T07:28:46.177Z,11.47
2018-02-15T07:31:14.491Z,12.93
2018-02-15T07:33:42.027Z,13.67
2018-02-15T07:36:10.372Z,12.07
2018-02-15T07:38:37.891Z,13.17
2018-02-15T07:41:05.434Z,13.63
2018-02-15T07:43:33.716Z,16.40
2018-02-15T07:46:01.990Z,12.33
2018-02-15T07:48:30.273Z,11.93
2018-02-15T07:50:58.597Z,11.97
2018-02-15T07:53:26.117Z,11.63
2018-02-15T07:55:54.409Z,13.07
2018-02-15T07:58:22.707Z,13.63
2018-02-15T08:00:50.221Z,13.23
2018-02-15T08:03:17.764Z,12.27
2018-02-15T08:05:45.297Z,12.50
2018-02-15T08:08:12.827Z,13.37
2018-02-15T08:10:40.374Z,13.30
2018-02-15T08:13:07.942Z,13.10
2018-02-15T08:15:35.476Z,12.67
2018-02-15T08:18:03.043Z,12.37
2018-02-15T08:20:30.573Z,12.33
2018-02-15T08:22:58.845Z,12.03
2018-02-15T08:25:27.137Z,13.00
2018-02-15T08:27:55.413Z,12.43
2018-02-15T08:30:22.947Z,12.93
2018-02-15T08:32:50.476Z,13.23
2018-02-15T08:35:18.000Z,11.43
2018-02-15T08:37:46.306Z,10.90
2018-02-15T08:40:13.824Z,12.00
2018-02-15T08:42:41.353Z,13.37
2018-02-15T08:45:08.867Z,12.50
2018-02-15T08:47:37.151Z,12.20
2018-02-15T08:50:04.661Z,11.17
2018-02-15T08:52:32.183Z,12.90
2018-02-15T08:55:00.472Z,12.20
2018-02-15T08:57:28.743Z,12.33
2018-02-15T08:59:57.011Z,12.37
2018-02-15T09:02:24.508Z,13.27
2018-02-15T09:04:52.785Z,10.50
2018-02-15T09:07:21.076Z,13.50
2018-02-15T09:09:48.619Z,12.13
2018-02-15T09:12:17.410Z,11.90
2018-02-15T09:14:44.905Z,11.67
2018-02-15T09:17:12.419Z,14.87
2018-02-15T09:19:39.930Z,12.63
2018-02-15T09:22:07.437Z,12.87
2018-02-15T09:24:34.961Z,11.07
2018-02-15T09:27:02.484Z,12.23
2018-02-15T09:29:29.996Z,11.73
2018-02-15T09:31:57.502Z,11.93
2018-02-15T09:34:25.029Z,11.57
2018-02-15T09:36:52.559Z,12.33
2018-02-15T09:39:20.836Z,11.93
2018-02-15T09:41:49.142Z,11.97
2018-02-15T09:44:16.658Z,13.23
2018-02-15T09:46:44.171Z,11.67
2018-02-15T09:49:11.703Z,13.17
2018-02-15T09:51:39.211Z,12.67
2018-02-15T09:54:06.747Z,12.50
2018-02-15T09:56:35.076Z,13.53
2018-02-15T09:59:02.593Z,12.27
2018-02-15T10:01:30.127Z,13.60
2018-02-15T10:03:57.710Z,13.13
2018-02-15T10:06:25.994Z,12.70
2018-02-15T10:08:54.269Z,12.03
2018-02-15T10:11:22.564Z,10.73
2018-02-15T10:13:50.842Z,15.07
2018-02-15T10:16:19.120Z,10.83
2018-02-15T10:18:47.405Z,11.90
2018-02-15T10:21:15.682Z,15.40
2018-02-15T10:23:43.959Z,15.10
2018-02-15T10:26:12.263Z,15.37
2018-02-15T10:28:39.783Z,12.83
2018-02-15T10:31:07.301Z,15.43
2018-02-15T10:33:34.811Z,14.60
2018-02-15T10:36:02.342Z,12.83
2018-02-15T10:38:29.893Z,13.23
2018-02-15T10:40:57.410Z,15.13
2018-02-15T10:43:25.023Z,15.53
2018-02-15T10:45:52.528Z,19.13
2018-02-15T10:48:20.062Z,13.07
2018-02-15T10:50:47.641Z,17.17
2018-02-15T10:53:15.176Z,15.20
2018-02-15T10:55:42.758Z,13.77
2018-02-15T10:58:10.313Z,17.83
2018-02-15T11:00:43.559Z,19.17
2018-02-15T11:03:16.885Z,19.10
2018-02-15T11:05:45.971Z,18.03
2018-02-15T11:08:13.592Z,18.47
2018-02-15T11:10:41.122Z,18.90
2018-02-15T11:13:08.634Z,17.43
2018-02-15T11:15:36.170Z,17.57
2018-02-15T11:18:03.718Z,22.10
2018-02-15T11:20:31.656Z,18.87
2018-02-15T11:22:59.189Z,21.73
2018-02-15T11:25:27.532Z,20.70
2018-02-15T11:27:55.830Z,15.53
2018-02-15T11:30:23.349Z,26.63
2018-02-15T11:32:50.896Z,21.07
2018-02-15T11:35:18.436Z,29.70
2018-02-15T11:37:45.963Z,21.87
2018-02-15T11:40:14.257Z,25.43
2018-02-15T11:42:41.782Z,22.43
2018-02-15T11:45:09.316Z,24.00
2018-02-15T11:47:36.849Z,26.00
2018-02-15T11:50:04.379Z,23.50
2018-02-15T11:52:31.912Z,23.57
2018-02-15T11:54:59.440Z,23.23
2018-02-15T11:57:26.965Z,24.90
2018-02-15T11:59:54.484Z,25.97
2018-02-15T12:02:22.008Z,25.23
2018-02-15T12:04:50.284Z,23.20
2018-02-15T12:07:17.807Z,24.43
2018-02-15T12:09:45.824Z,27.27
2018-02-15T12:12:14.126Z,24.13
2018-02-15T12:14:42.403Z,25.27
2018-02-15T12:17:10.694Z,24.30
2018-02-15T12:19:38.978Z,25.43
2018-02-15T12:22:07.279Z,24.80
2018-02-15T12:24:34.805Z,23.57
2018-02-15T12:27:02.312Z,29.23
2018-02-15T12:29:29.865Z,29.43
2018-02-15T12:31:57.404Z,33.80
2018-02-15T12:34:25.698Z,34.43
2018-02-15T12:36:53.985Z,32.90
2018-02-15T12:39:21.522Z,31.97
2018-02-15T12:41:49.019Z,28.90
2018-02-15T12:44:16.535Z,23.50
2018-02-15T12:46:44.036Z,25.00
2018-02-15T12:49:12.320Z,23.40
2018-02-15T12:51:39.892Z,30.70
2018-02-15T12:54:07.431Z,27.30
2018-02-15T12:56:34.951Z,26.87
2018-02-15T12:59:02.470Z,29.77
2018-02-15T13:01:30.755Z,27.57
2018-02-15T13:03:59.034Z,27.87
2018-02-15T13:06:27.330Z,23.20
2018-02-15T13:08:54.861Z,29.60
2018-02-15T13:11:22.382Z,22.87
2018-02-15T13:13:49.908Z,26.83
2018-02-15T13:16:30.215Z,22.30
2018-02-15T13:19:09.599Z,25.53
2018-02-15T13:21:37.898Z,27.27
2018-02-15T13:24:05.435Z,21.03
2018-02-15T13:26:33.715Z,25.33
2018-02-15T13:29:02.009Z,24.93
2018-02-15T13:31:29.535Z,23.50
2018-02-15T13:33:57.037Z,19.07
2018-02-15T13:36:25.326Z,20.53
2018-02-15T13:38:52.866Z,15.53
2018-02-15T13:41:21.156Z,17.63
2018-02-15T13:43:49.452Z,18.73
2018-02-15T13:46:17.713Z,16.77
2018-02-15T13:48:45.222Z,17.40
2018-02-15T13:51:12.744Z,20.73
2018-02-15T13:53:41.074Z,13.70
2018-02-15T13:58:52.260Z,11.83
2018-02-15T14:01:19.760Z,12.70
2018-02-15T14:03:47.318Z,30.63
2018-02-15T14:06:14.834Z,19.17
2018-02-15T14:08:42.367Z,24.63
2018-02-15T14:11:09.905Z,27.63
2018-02-15T14:13:37.450Z,28.37
2018-02-15T14:16:04.987Z,25.30
2018-02-15T14:18:32.501Z,20.80
2018-02-15T14:21:00.042Z,26.83
2018-02-15T14:23:27.578Z,20.27
2018-02-15T14:25:55.131Z,19.13
2018-02-15T14:28:23.408Z,17.67
2018-02-15T14:30:51.686Z,16.17
2018-02-15T14:33:19.213Z,11.80
2018-02-15T14:35:46.733Z,12.33
2018-02-15T14:38:15.007Z,16.77
2018-02-15T14:40:43.330Z,18.13
2018-02-15T14:43:10.852Z,11.43
2018-02-15T14:45:39.113Z,11.00
2018-02-15T14:48:06.642Z,15.73
2018-02-15T14:50:34.156Z,12.77
2018-02-15T14:53:02.450Z,12.77
2018-02-15T14:55:30.754Z,12.73
2018-02-15T14:57:59.087Z,14.80
2018-02-15T15:00:26.601Z,10.97
2018-02-15T15:02:54.112Z,10.33
2018-02-15T15:05:21.642Z,9.73
2018-02-15T15:07:49.172Z,10.20
2018-02-15T15:10:17.458Z,9.93
2018-02-15T15:12:44.970Z,10.83
2018-02-15T15:15:12.523Z,13.13
2018-02-15T15:17:40.066Z,10.77
2018-02-15T15:20:07.588Z,8.53
2018-02-15T15:22:35.892Z,8.20
2018-02-15T15:25:03.484Z,10.83
2018-02-15T15:27:31.120Z,7.50
2018-02-15T15:29:59.424Z,11.37
2018-02-15T15:32:27.029Z,12.57
2018-02-15T15:34:54.555Z,5.53
2018-02-15T15:37:22.059Z,10.17
2018-02-15T15:39:49.580Z,8.93
2018-02-15T15:42:17.093Z,9.97
2018-02-15T15:44:44.633Z,8.77
2018-02-15T15:47:12.164Z,7.90
2018-02-15T15:49:39.696Z,9.17
2018-02-15T15:52:07.254Z,12.63
2018-02-15T15:54:34.780Z,12.47
2018-02-15T15:57:02.293Z,7.10
2018-02-15T15:59:29.840Z,9.70
2018-02-15T16:01:57.356Z,7.00
2018-02-15T16:04:24.911Z,5.40
2018-02-15T16:06:52.439Z,9.73
2018-02-15T16:09:19.971Z,5.33
2018-02-15T16:11:47.467Z,6.97
2018-02-15T16:14:14.974Z,7.10
2018-02-15T16:16:42.482Z,6.03
2018-02-15T16:19:10.017Z,6.67
2018-02-15T16:21:37.546Z,5.83
2018-02-15T16:24:05.822Z,5.70
2018-02-15T16:26:34.107Z,7.70
2018-02-15T16:29:02.407Z,5.73
2018-02-15T16:31:29.927Z,7.23
2018-02-15T16:33:57.447Z,6.77
2018-02-15T16:36:24.988Z,10.33
2018-02-15T16:38:53.260Z,8.77
2018-02-15T16:41:20.765Z,12.73
2018-02-15T16:43:49.063Z,6.73
2018-02-15T16:46:16.572Z,5.87
2018-02-15T16:48:44.876Z,4.93
2018-02-15T16:51:12.397Z,6.00
2018-02-15T16:53:39.923Z,6.17
2018-02-15T16:56:07.451Z,5.70
2018-02-15T16:58:35.740Z,6.70
2018-02-15T17:01:03.291Z,5.63
2018-02-15T17:03:31.572Z,6.57
2018-02-15T17:05:59.855Z,9.93
2018-02-15T17:08:28.140Z,7.17
2018-02-15T17:10:56.534Z,8.20
2018-02-15T17:13:24.133Z,6.77
2018-02-15T17:15:51.701Z,6.47
2018-02-15T17:18:19.245Z,6.93
2018-02-15T17:20:46.791Z,8.37
2018-02-15T17:23:15.120Z,5.50
2018-02-15T17:25:42.642Z,3.97
2018-02-15T17:28:10.159Z,4.67
2018-02-15T17:30:37.703Z,7.40
2018-02-15T17:33:06.103Z,4.40
2018-02-15T17:35:33.643Z,6.30
2018-02-15T17:38:01.143Z,5.37
2018-02-15T17:40:28.657Z,5.27
2018-02-15T17:42:56.195Z,6.23
2018-02-15T17:45:24.499Z,3.37
2018-02-15T17:47:52.036Z,5.30
2018-02-15T17:50:19.546Z,6.77
2018-02-15T17:52:47.114Z,6.30
2018-02-15T17:55:14.621Z,6.10
2018-02-15T17:57:42.142Z,4.60
2018-02-15T18:00:09.659Z,4.97
2018-02-15T18:02:37.940Z,7.43
2018-02-15T18:05:06.239Z,3.60
2018-02-15T18:07:34.544Z,7.43
2018-02-15T18:10:02.124Z,7.13
2018-02-15T18:12:30.398Z,5.17
2018-02-15T18:14:57.892Z,10.90
2018-02-15T18:17:25.417Z,5.47
2018-02-15T18:19:52.951Z,10.80
2018-02-15T18:22:21.262Z,7.17
2018-02-15T18:24:48.802Z,4.90
2018-02-15T18:27:17.140Z,8.30
2018-02-15T18:29:44.653Z,5.17
2018-02-15T18:32:12.956Z,7.33
2018-02-15T18:34:40.462Z,10.43
2018-02-15T18:37:07.988Z,5.00
2018-02-15T18:39:35.610Z,6.60
2018-02-15T18:42:03.878Z,5.60
2018-02-15T18:44:31.417Z,7.40
2018-02-15T18:46:59.044Z,4.30
2018-02-15T18:49:26.575Z,3.93
2018-02-15T18:51:54.112Z,4.67
2018-02-15T18:54:21.611Z,4.30
2018-02-15T18:56:49.765Z,7.17
2018-02-15T18:59:17.296Z,4.83
2018-02-15T19:01:44.826Z,4.97
2018-02-15T19:04:13.126Z,6.30
2018-02-15T19:06:40.670Z,5.70
2018-02-15T19:09:08.971Z,4.73
2018-02-15T19:11:37.266Z,9.63
2018-02-15T19:14:04.793Z,4.37
2018-02-15T19:16:33.114Z,7.83
2018-02-15T19:19:00.644Z,9.07
2018-02-15T19:21:29.073Z,7.80
2018-02-15T19:23:56.589Z,6.57
2018-02-15T19:26:24.110Z,4.40
2018-02-15T19:28:51.624Z,5.53
2018-02-15T19:31:19.940Z,5.47
2018-02-15T19:33:47.463Z,6.53
2018-02-15T19:36:15.000Z,4.77
2018-02-15T19:38:42.531Z,5.13
2018-02-15T19:41:10.070Z,5.40
2018-02-15T19:43:38.348Z,7.83
2018-02-15T19:46:06.637Z,4.23
2018-02-15T19:48:34.946Z,7.10
2018-02-15T19:51:02.454Z,4.90
2018-02-15T19:53:30.037Z,5.53
2018-02-15T19:55:58.311Z,6.27
2018-02-15T19:58:25.843Z,5.67
2018-02-15T20:00:53.362Z,4.67
2018-02-15T20:03:20.879Z,10.47
2018-02-15T20:05:48.446Z,6.07
2018-02-15T20:08:16.014Z,8.93
2018-02-15T20:10:43.531Z,6.80
2018-02-15T20:13:11.041Z,8.47
2018-02-15T20:15:44.246Z,5.00
2018-02-15T20:18:11.759Z,5.37
2018-02-15T20:20:39.272Z,6.17
2018-02-15T20:23:06.782Z,9.10
2018-02-15T20:25:34.287Z,6.00
2018-02-15T20:28:07.415Z,6.93
2018-02-15T20:30:35.693Z,4.87
2018-02-15T20:33:03.991Z,4.27
2018-02-15T20:35:31.523Z,5.40
2018-02-15T20:38:05.564Z,5.43
2018-02-15T20:40:36.332Z,5.20
2018-02-15T20:43:03.836Z,6.63
2018-02-15T20:45:31.370Z,6.80
2018-02-15T20:47:58.871Z,5.67
2018-02-15T20:50:32.174Z,4.20
2018-02-15T20:53:06.179Z,5.83
2018-02-15T20:55:39.414Z,4.20
2018-02-15T20:58:06.921Z,3.43
2018-02-15T21:00:34.521Z,3.77
2018-02-15T21:03:01.991Z,5.93
2018-02-15T21:05:30.276Z,4.87
2018-02-15T21:07:58.570Z,5.87
2018-02-15T21:10:26.088Z,5.70
2018-02-15T21:12:53.621Z,3.03
2018-02-15T21:15:21.149Z,4.77
2018-02-15T21:17:49.478Z,3.60
2018-02-15T21:20:17.027Z,4.83
2018-02-15T21:22:45.331Z,4.07
2018-02-15T21:25:12.831Z,2.37
2018-02-15T21:27:41.112Z,3.83
2018-02-15T21:30:09.663Z,3.50
2018-02-15T21:32:37.206Z,6.83
2018-02-15T21:35:04.704Z,5.20
2018-02-15T21:37:32.226Z,4.57
2018-02-15T21:39:59.749Z,5.03
2018-02-15T21:42:28.064Z,6.97
2018-02-15T21:44:55.569Z,4.20
2018-02-15T21:47:23.082Z,5.23
2018-02-15T21:49:50.617Z,3.20
2018-02-15T21:52:18.132Z,2.83
2018-02-15T21:54:45.661Z,4.83
2018-02-15T21:57:13.940Z,5.20
2018-02-15T21:59:42.229Z,6.63
2018-02-15T22:02:09.765Z,6.10
2018-02-15T22:04:37.280Z,2.87
2018-02-15T22:07:04.816Z,4.37
2018-02-15T22:09:33.124Z,5.10
2018-02-15T22:12:00.646Z,2.77
2018-02-15T22:14:28.964Z,4.57
2018-02-15T22:16:56.567Z,4.73
2018-02-15T22:19:25.888Z,3.60
2018-02-15T22:21:54.167Z,3.87
2018-02-15T22:24:21.654Z,4.33
2018-02-15T22:26:49.861Z,4.23
2018-02-15T22:29:17.309Z,2.67
2018-02-15T22:31:44.758Z,3.73
2018-02-15T22:34:12.977Z,2.83
2018-02-15T22:36:40.439Z,4.87
2018-02-15T22:39:07.890Z,5.50
2018-02-15T22:41:35.359Z,4.23
2018-02-15T22:44:02.820Z,2.30
2018-02-15T22:46:30.282Z,3.97
2018-02-15T22:48:57.761Z,3.33
2018-02-15T22:51:25.206Z,3.03
2018-02-15T22:53:52.929Z,3.13
2018-02-15T22:56:20.378Z,3.60
2018-02-15T22:58:47.821Z,4.83
2018-02-15T23:01:15.264Z,8.73
2018-02-15T23:03:42.721Z,4.30
2018-02-15T23:06:10.173Z,4.07
2018-02-15T23:08:37.640Z,3.33
2018-02-15T23:11:05.097Z,5.27
2018-02-15T23:13:32.530Z,3.17
2018-02-15T23:15:59.986Z,5.33
2018-02-15T23:18:27.427Z,5.90
2018-02-15T23:20:54.895Z,6.47
2018-02-15T23:23:22.359Z,2.87
2018-02-15T23:25:49.812Z,4.33
2018-02-15T23:28:17.276Z,4.73
2018-02-15T23:30:44.738Z,2.93
2018-02-15T23:33:12.203Z,5.10
2018-02-15T23:35:39.656Z,5.97
2018-02-15T23:38:07.114Z,7.53
2018-02-15T23:40:34.582Z,9.37
2018-02-15T23:43:02.026Z,4.83
2018-02-15T23:45:29.496Z,8.10
2018-02-15T23:47:57.722Z,8.27
2018-02-15T23:50:25.195Z,8.47
2018-02-15T23:52:52.632Z,5.63
2018-02-15T23:55:20.106Z,7.90
2018-02-15T23:57:47.561Z,6.17
